QFA2071 YMML-YSSY
Flight info
| Callsign | QFA2071 |
|---|---|
| Flight time | 1h 7m |
| Altitude | 31000 |
| Route | DOSEL2/34 DOSEL Y59 RIVET |
| Aircraft | A35K/H-SDE2E3GHIJ3J4J5LM1ORWXY/LB1D1 |
Departure
| Time | 2026-05-04 07:09 |
|---|---|
| Airport | Melbourne Airport (YMML) |
Arrival
| Time | 2026-05-04 08:16 |
|---|---|
| Airport | Sydney Kingsford Smith International Airport (YSSY) |
| Time | Latitude | Longitude | Altitude | Speed | Heading |
|---|---|---|---|---|---|
| 2026-05-04 06:41 | -37.67778 | 144.84685 | 364 ft | 0 kts | 132° |
| 2026-05-04 06:45 | -37.67812 | 144.84788 | 358 ft | 0 kts | 172° |
| 2026-05-04 06:57 | -37.67765 | 144.84780 | 360 ft | 3 kts | 188° |
| 2026-05-04 06:58 | -37.67747 | 144.84787 | 363 ft | 3 kts | 223° |
| 2026-05-04 06:58 | -37.67735 | 144.84806 | 363 ft | 3 kts | 257° |
| 2026-05-04 06:58 | -37.67734 | 144.84812 | 362 ft | 0 kts | 266° |
| 2026-05-04 07:01 | -37.67736 | 144.84760 | 362 ft | 2 kts | 267° |
| 2026-05-04 07:01 | -37.67737 | 144.84736 | 360 ft | 3 kts | 267° |
| 2026-05-04 07:02 | -37.67745 | 144.84667 | 359 ft | 12 kts | 253° |
| 2026-05-04 07:02 | -37.67799 | 144.84594 | 364 ft | 12 kts | 226° |
| 2026-05-04 07:02 | -37.67826 | 144.84495 | 358 ft | 12 kts | 259° |
| 2026-05-04 07:02 | -37.67840 | 144.84388 | 362 ft | 12 kts | 261° |
| 2026-05-04 07:03 | -37.67853 | 144.84278 | 361 ft | 13 kts | 261° |
| 2026-05-04 07:03 | -37.67867 | 144.84161 | 362 ft | 10 kts | 261° |
| 2026-05-04 07:03 | -37.67868 | 144.84154 | 362 ft | 0 kts | 261° |
| 2026-05-04 07:08 | -37.66767 | 144.83760 | 390 ft | 121 kts | 351° |
| 2026-05-04 07:09 | -37.65788 | 144.83588 | 420 ft | 161 kts | 353° |
| 2026-05-04 07:09 | -37.64734 | 144.83375 | 1052 ft | 150 kts | 352° |
| 2026-05-04 07:09 | -37.63740 | 144.83182 | 1733 ft | 142 kts | 349° |
| 2026-05-04 07:09 | -37.62723 | 144.82985 | 1963 ft | 155 kts | 348° |
| 2026-05-04 07:10 | -37.61594 | 144.82762 | 2170 ft | 173 kts | 349° |
| 2026-05-04 07:10 | -37.60343 | 144.82520 | 2374 ft | 192 kts | 348° |
| 2026-05-04 07:12 | -37.49838 | 144.87906 | 5629 ft | 257 kts | 18° |
| 2026-05-04 07:12 | -37.48221 | 144.88894 | 6141 ft | 259 kts | 19° |
| 2026-05-04 07:12 | -37.46591 | 144.89884 | 6641 ft | 262 kts | 18° |
| 2026-05-04 07:12 | -37.44939 | 144.90897 | 7130 ft | 265 kts | 20° |
| 2026-05-04 07:13 | -37.43404 | 144.92257 | 7631 ft | 278 kts | 39° |
| 2026-05-04 07:13 | -37.42165 | 144.94181 | 8137 ft | 286 kts | 48° |
| 2026-05-04 07:13 | -37.41016 | 144.96248 | 8648 ft | 290 kts | 49° |
| 2026-05-04 07:14 | -37.36294 | 145.04704 | 10684 ft | 306 kts | 48° |
| 2026-05-04 07:14 | -37.35042 | 145.06917 | 11180 ft | 314 kts | 49° |
| 2026-05-04 07:15 | -37.33762 | 145.09178 | 11677 ft | 321 kts | 49° |
| 2026-05-04 07:15 | -37.32448 | 145.11498 | 12184 ft | 329 kts | 49° |
| 2026-05-04 07:15 | -37.31108 | 145.13863 | 12714 ft | 335 kts | 49° |
| 2026-05-04 07:15 | -37.29745 | 145.16267 | 13226 ft | 341 kts | 49° |
| 2026-05-04 07:16 | -37.28355 | 145.18717 | 13775 ft | 347 kts | 49° |
| 2026-05-04 07:16 | -37.26944 | 145.21202 | 14252 ft | 352 kts | 50° |
| 2026-05-04 07:16 | -37.25514 | 145.23718 | 14736 ft | 356 kts | 50° |
| 2026-05-04 07:16 | -37.24068 | 145.26262 | 15229 ft | 360 kts | 50° |
| 2026-05-04 07:17 | -37.22604 | 145.28836 | 15723 ft | 364 kts | 50° |
| 2026-05-04 07:17 | -37.21127 | 145.31428 | 16234 ft | 367 kts | 50° |
| 2026-05-04 07:17 | -37.19632 | 145.34049 | 16753 ft | 370 kts | 50° |
| 2026-05-04 07:17 | -37.18141 | 145.36663 | 17279 ft | 374 kts | 50° |
| 2026-05-04 07:18 | -37.16623 | 145.39321 | 17817 ft | 377 kts | 50° |
| 2026-05-04 07:18 | -37.15089 | 145.42011 | 18324 ft | 380 kts | 50° |
| 2026-05-04 07:18 | -37.13543 | 145.44712 | 18808 ft | 383 kts | 49° |
| 2026-05-04 07:18 | -37.11979 | 145.47437 | 19290 ft | 386 kts | 49° |
| 2026-05-04 07:19 | -37.10397 | 145.50190 | 19781 ft | 389 kts | 49° |
| 2026-05-04 07:19 | -37.08812 | 145.52948 | 20266 ft | 391 kts | 48° |
| 2026-05-04 07:19 | -37.07221 | 145.55717 | 20778 ft | 393 kts | 48° |
| 2026-05-04 07:19 | -37.05618 | 145.58503 | 21298 ft | 394 kts | 47° |
| 2026-05-04 07:20 | -37.04010 | 145.61294 | 21864 ft | 393 kts | 47° |
| 2026-05-04 07:20 | -37.02424 | 145.64055 | 22651 ft | 386 kts | 47° |
| 2026-05-04 07:20 | -37.00859 | 145.66779 | 23269 ft | 384 kts | 46° |
| 2026-05-04 07:20 | -36.99317 | 145.69455 | 23778 ft | 383 kts | 46° |
| 2026-05-04 07:22 | -36.88841 | 145.87594 | 27210 ft | 348 kts | 42° |
| 2026-05-04 07:22 | -36.87414 | 145.90042 | 27460 ft | 348 kts | 42° |
| 2026-05-04 07:23 | -36.85969 | 145.92505 | 27581 ft | 352 kts | 42° |
| 2026-05-04 07:23 | -36.84542 | 145.94942 | 27833 ft | 352 kts | 42° |
| 2026-05-04 07:23 | -36.83097 | 145.97418 | 28085 ft | 353 kts | 42° |
| 2026-05-04 07:23 | -36.81651 | 145.99902 | 28263 ft | 354 kts | 42° |
| 2026-05-04 07:24 | -36.80203 | 146.02389 | 28441 ft | 355 kts | 42° |
| 2026-05-04 07:24 | -36.78747 | 146.04885 | 28609 ft | 357 kts | 42° |
| 2026-05-04 07:24 | -36.77282 | 146.07393 | 28821 ft | 357 kts | 42° |
| 2026-05-04 07:24 | -36.75814 | 146.09904 | 28969 ft | 359 kts | 42° |
| 2026-05-04 07:25 | -36.74333 | 146.12430 | 29088 ft | 362 kts | 42° |
| 2026-05-04 07:26 | -36.63791 | 146.30413 | 30217 ft | 372 kts | 42° |
| 2026-05-04 07:27 | -36.60735 | 146.35608 | 30386 ft | 376 kts | 43° |
| 2026-05-04 07:27 | -36.59183 | 146.38244 | 30510 ft | 377 kts | 43° |
| 2026-05-04 07:27 | -36.57632 | 146.40876 | 30621 ft | 378 kts | 43° |
| 2026-05-04 07:28 | -36.56072 | 146.43521 | 30755 ft | 379 kts | 43° |
| 2026-05-04 07:28 | -36.54506 | 146.46175 | 30866 ft | 380 kts | 43° |
| 2026-05-04 07:28 | -36.51340 | 146.51523 | 30934 ft | 389 kts | 43° |
| 2026-05-04 07:29 | -36.48082 | 146.57010 | 30914 ft | 400 kts | 43° |
| 2026-05-04 07:29 | -36.44768 | 146.62594 | 30979 ft | 410 kts | 44° |
| 2026-05-04 07:30 | -36.41342 | 146.68364 | 31006 ft | 421 kts | 44° |
| 2026-05-04 07:30 | -36.37795 | 146.74322 | 31010 ft | 435 kts | 44° |
| 2026-05-04 07:31 | -36.34149 | 146.80436 | 31006 ft | 449 kts | 44° |
| 2026-05-04 07:33 | -36.20392 | 147.03423 | 31010 ft | 500 kts | 45° |
| 2026-05-04 07:33 | -36.18299 | 147.06908 | 31015 ft | 507 kts | 45° |
| 2026-05-04 07:33 | -36.14037 | 147.13999 | 31012 ft | 519 kts | 45° |
| 2026-05-04 07:34 | -36.09688 | 147.21218 | 31023 ft | 527 kts | 45° |
| 2026-05-04 07:34 | -36.05294 | 147.28501 | 31028 ft | 528 kts | 45° |
| 2026-05-04 07:35 | -36.00888 | 147.35784 | 31034 ft | 529 kts | 45° |
| 2026-05-04 07:35 | -35.96483 | 147.43050 | 31030 ft | 527 kts | 45° |
| 2026-05-04 07:36 | -35.92110 | 147.50241 | 31038 ft | 527 kts | 44° |
| 2026-05-04 07:38 | -35.74492 | 147.79062 | 31050 ft | 526 kts | 44° |
| 2026-05-04 07:38 | -35.70073 | 147.86244 | 31055 ft | 526 kts | 44° |
| 2026-05-04 07:39 | -35.65678 | 147.93377 | 31019 ft | 526 kts | 43° |
| 2026-05-04 07:39 | -35.61260 | 148.00537 | 31063 ft | 526 kts | 43° |
| 2026-05-04 07:40 | -35.56824 | 148.07711 | 31065 ft | 526 kts | 43° |
| 2026-05-04 07:40 | -35.52391 | 148.14865 | 31063 ft | 526 kts | 43° |
| 2026-05-04 07:41 | -35.47942 | 148.22024 | 31060 ft | 527 kts | 43° |
| 2026-05-04 07:41 | -35.43493 | 148.29175 | 31069 ft | 527 kts | 43° |
| 2026-05-04 07:42 | -35.39075 | 148.36270 | 31071 ft | 527 kts | 43° |
| 2026-05-04 07:42 | -35.34614 | 148.43405 | 31067 ft | 527 kts | 43° |
| 2026-05-04 07:43 | -35.30135 | 148.50553 | 31064 ft | 528 kts | 44° |
| 2026-05-04 07:43 | -35.26425 | 148.56469 | 31068 ft | 527 kts | 44° |
| 2026-05-04 07:44 | -35.21951 | 148.63592 | 31065 ft | 527 kts | 44° |
| 2026-05-04 07:44 | -35.17468 | 148.70706 | 31063 ft | 528 kts | 44° |
| 2026-05-04 07:45 | -35.12980 | 148.77817 | 31057 ft | 528 kts | 44° |
| 2026-05-04 07:45 | -35.08521 | 148.84870 | 31061 ft | 527 kts | 44° |
| 2026-05-04 07:46 | -35.04032 | 148.91954 | 31065 ft | 528 kts | 44° |
| 2026-05-04 07:46 | -34.99534 | 148.99038 | 31062 ft | 528 kts | 44° |
| 2026-05-04 07:47 | -34.95029 | 149.06120 | 31060 ft | 527 kts | 44° |
| 2026-05-04 07:47 | -34.92795 | 149.09632 | 30922 ft | 518 kts | 44° |
| 2026-05-04 07:49 | -34.77750 | 149.33166 | 26427 ft | 494 kts | 44° |
| 2026-05-04 07:49 | -34.75646 | 149.36449 | 25836 ft | 489 kts | 44° |
| 2026-05-04 07:49 | -34.73738 | 149.39893 | 25325 ft | 494 kts | 52° |
| 2026-05-04 07:50 | -34.72025 | 149.43521 | 25107 ft | 496 kts | 53° |
| 2026-05-04 07:50 | -34.70371 | 149.47203 | 25069 ft | 497 kts | 54° |
| 2026-05-04 07:50 | -34.68765 | 149.50875 | 25064 ft | 497 kts | 54° |
| 2026-05-04 07:50 | -34.67155 | 149.54596 | 25057 ft | 496 kts | 55° |
| 2026-05-04 07:51 | -34.65560 | 149.58293 | 24655 ft | 491 kts | 54° |
| 2026-05-04 07:51 | -34.63976 | 149.61957 | 24034 ft | 489 kts | 54° |
| 2026-05-04 07:51 | -34.62393 | 149.65594 | 23438 ft | 485 kts | 54° |
| 2026-05-04 07:51 | -34.60818 | 149.69196 | 22759 ft | 482 kts | 55° |
| 2026-05-04 07:52 | -34.59245 | 149.72784 | 22117 ft | 477 kts | 55° |
| 2026-05-04 07:52 | -34.57688 | 149.76327 | 21512 ft | 473 kts | 55° |
| 2026-05-04 07:52 | -34.56169 | 149.79780 | 20953 ft | 468 kts | 55° |
| 2026-05-04 07:52 | -34.54634 | 149.83266 | 20372 ft | 464 kts | 55° |
| 2026-05-04 07:53 | -34.53122 | 149.86695 | 19817 ft | 459 kts | 56° |
| 2026-05-04 07:54 | -34.42860 | 150.09885 | 15478 ft | 432 kts | 56° |
| 2026-05-04 07:55 | -34.41469 | 150.13036 | 14824 ft | 417 kts | 56° |
| 2026-05-04 07:55 | -34.40122 | 150.16073 | 14176 ft | 401 kts | 56° |
| 2026-05-04 07:55 | -34.38826 | 150.18990 | 13481 ft | 387 kts | 56° |
| 2026-05-04 07:55 | -34.37584 | 150.21781 | 12780 ft | 374 kts | 56° |
| 2026-05-04 07:56 | -34.36370 | 150.24505 | 12093 ft | 363 kts | 56° |
| 2026-05-04 07:56 | -34.35183 | 150.27163 | 11410 ft | 353 kts | 55° |
| 2026-05-04 07:56 | -34.34031 | 150.29739 | 10726 ft | 344 kts | 56° |
| 2026-05-04 07:56 | -34.32907 | 150.32256 | 10122 ft | 335 kts | 56° |
| 2026-05-04 07:57 | -34.31817 | 150.34704 | 9514 ft | 325 kts | 55° |
| 2026-05-04 07:57 | -34.30757 | 150.37073 | 8908 ft | 315 kts | 56° |
| 2026-05-04 07:57 | -34.29727 | 150.39377 | 8327 ft | 307 kts | 56° |
| 2026-05-04 07:57 | -34.28738 | 150.41580 | 8159 ft | 290 kts | 55° |
| 2026-05-04 07:58 | -34.27772 | 150.43729 | 8165 ft | 292 kts | 55° |
| 2026-05-04 07:58 | -34.26803 | 150.45889 | 8163 ft | 292 kts | 55° |
| 2026-05-04 07:58 | -34.25836 | 150.48045 | 8158 ft | 291 kts | 55° |
| 2026-05-04 07:58 | -34.24873 | 150.50198 | 8158 ft | 291 kts | 54° |
| 2026-05-04 07:59 | -34.23909 | 150.52348 | 8157 ft | 291 kts | 55° |
| 2026-05-04 07:59 | -34.22945 | 150.54500 | 8154 ft | 292 kts | 55° |
| 2026-05-04 07:59 | -34.21979 | 150.56654 | 8150 ft | 291 kts | 54° |
| 2026-05-04 07:59 | -34.21022 | 150.58787 | 8145 ft | 291 kts | 54° |
| 2026-05-04 08:00 | -34.20055 | 150.60941 | 8149 ft | 292 kts | 55° |
| 2026-05-04 08:00 | -34.19087 | 150.63096 | 8137 ft | 290 kts | 54° |
| 2026-05-04 08:00 | -34.18125 | 150.65239 | 8134 ft | 290 kts | 54° |
| 2026-05-04 08:02 | -34.11376 | 150.80227 | 7870 ft | 290 kts | 54° |
| 2026-05-04 08:02 | -34.10410 | 150.82369 | 7611 ft | 289 kts | 54° |
| 2026-05-04 08:02 | -34.09453 | 150.84493 | 7367 ft | 289 kts | 55° |
| 2026-05-04 08:03 | -34.08496 | 150.86623 | 7136 ft | 288 kts | 55° |
| 2026-05-04 08:03 | -34.07558 | 150.88710 | 6996 ft | 286 kts | 54° |
| 2026-05-04 08:03 | -34.06607 | 150.90819 | 6978 ft | 286 kts | 55° |
| 2026-05-04 08:03 | -34.05654 | 150.92931 | 6979 ft | 285 kts | 55° |
| 2026-05-04 08:04 | -34.04735 | 150.94983 | 6978 ft | 268 kts | 55° |
| 2026-05-04 08:04 | -34.03879 | 150.96907 | 6996 ft | 254 kts | 55° |
| 2026-05-04 08:04 | -34.03264 | 150.98892 | 6984 ft | 253 kts | 75° |
| 2026-05-04 08:04 | -34.03330 | 151.00966 | 7013 ft | 248 kts | 101° |
| 2026-05-04 08:05 | -34.04104 | 151.02807 | 7015 ft | 252 kts | 127° |
| 2026-05-04 08:05 | -34.05284 | 151.04391 | 6984 ft | 255 kts | 133° |
| 2026-05-04 08:05 | -34.06521 | 151.05924 | 6984 ft | 255 kts | 134° |
| 2026-05-04 08:05 | -34.07831 | 151.07365 | 6991 ft | 255 kts | 146° |
| 2026-05-04 08:06 | -34.09423 | 151.08159 | 6960 ft | 242 kts | 170° |
| 2026-05-04 08:06 | -34.11026 | 151.08585 | 6852 ft | 230 kts | 173° |
| 2026-05-04 08:06 | -34.12582 | 151.08963 | 6556 ft | 227 kts | 173° |
| 2026-05-04 08:06 | -34.14128 | 151.09343 | 6240 ft | 226 kts | 172° |
| 2026-05-04 08:08 | -34.23912 | 151.13609 | 3675 ft | 217 kts | 101° |
| 2026-05-04 08:08 | -34.24098 | 151.15372 | 3331 ft | 209 kts | 85° |
| 2026-05-04 08:10 | -34.18303 | 151.23710 | 2989 ft | 171 kts | 354° |
| 2026-05-04 08:11 | -34.17136 | 151.23542 | 2986 ft | 168 kts | 346° |
| 2026-05-04 08:11 | -34.14831 | 151.22964 | 2988 ft | 167 kts | 345° |
| 2026-05-04 08:11 | -34.13712 | 151.22664 | 2987 ft | 168 kts | 345° |
| 2026-05-04 08:12 | -34.12564 | 151.22357 | 2981 ft | 169 kts | 347° |
| 2026-05-04 08:12 | -34.11408 | 151.22052 | 2707 ft | 172 kts | 347° |
| 2026-05-04 08:12 | -34.10219 | 151.21738 | 2201 ft | 174 kts | 347° |
| 2026-05-04 08:12 | -34.09072 | 151.21435 | 2024 ft | 164 kts | 347° |
| 2026-05-04 08:13 | -34.07952 | 151.21138 | 1994 ft | 166 kts | 348° |
| 2026-05-04 08:13 | -34.06832 | 151.20840 | 1984 ft | 164 kts | 348° |
| 2026-05-04 08:13 | -34.05765 | 151.20558 | 1875 ft | 152 kts | 348° |
| 2026-05-04 08:13 | -34.04738 | 151.20285 | 1696 ft | 152 kts | 349° |
| 2026-05-04 08:14 | -34.03709 | 151.20012 | 1471 ft | 147 kts | 350° |
| 2026-05-04 08:14 | -34.02745 | 151.19758 | 1279 ft | 138 kts | 349° |
| 2026-05-04 08:14 | -34.01791 | 151.19504 | 1104 ft | 142 kts | 351° |
| 2026-05-04 08:16 | -33.95414 | 151.17801 | 28 ft | 68 kts | 347° |
| 2026-05-04 08:16 | -33.95231 | 151.17754 | 28 ft | 1 kts | 348° |
| 2026-05-04 08:16 | -33.95133 | 151.17729 | 28 ft | 21 kts | 348° |
| 2026-05-04 08:17 | -33.94929 | 151.17676 | 28 ft | 37 kts | 347° |
| 2026-05-04 08:17 | -33.94688 | 151.17614 | 29 ft | 34 kts | 348° |
| 2026-05-04 08:17 | -33.94481 | 151.17507 | 30 ft | 32 kts | 327° |
| 2026-05-04 08:17 | -33.94376 | 151.17404 | 31 ft | 2 kts | 316° |
| 2026-05-04 08:19 | -33.94076 | 151.17248 | 27 ft | 12 kts | 348° |
| 2026-05-04 08:19 | -33.93988 | 151.17226 | 28 ft | 14 kts | 345° |
| 2026-05-04 08:20 | -33.93976 | 151.17216 | 28 ft | 1 kts | 311° |
| 2026-05-04 08:20 | -33.93976 | 151.17213 | 28 ft | 0 kts | 297° |
| 2026-05-04 08:20 | -33.93976 | 151.17211 | 28 ft | 0 kts | 292° |
| 2026-05-04 08:20 | -33.93976 | 151.17209 | 31 ft | 1 kts | 281° |
| 2026-05-04 08:21 | -33.93977 | 151.17205 | 31 ft | 0 kts | 266° |
| 2026-05-04 08:21 | -33.93984 | 151.17161 | 31 ft | 9 kts | 270° |
| 2026-05-04 08:21 | -33.93949 | 151.17106 | 29 ft | 8 kts | 329° |
| 2026-05-04 08:21 | -33.93900 | 151.17084 | 27 ft | 7 kts | 343° |
| 2026-05-04 08:22 | -33.93856 | 151.17058 | 27 ft | 6 kts | 303° |
| 2026-05-04 08:22 | -33.93855 | 151.17008 | 27 ft | 6 kts | 259° |
| 2026-05-04 08:24 | -33.93862 | 151.16970 | 27 ft | 0 kts | 254° |